createdAt,value
2023-11-25T00:03:59.334Z,59553.97
2023-11-25T00:09:00.531Z,59543.81
2023-11-25T00:14:01.709Z,59600.72
2023-11-25T00:19:06.868Z,59547.88
2023-11-25T00:24:08.666Z,59588.53
2023-11-25T00:29:10.116Z,59570.22
2023-11-25T00:34:11.447Z,59560.06
2023-11-25T00:39:12.787Z,59558.03
2023-11-25T00:44:13.961Z,59551.94
2023-11-25T00:49:16.326Z,59549.91
2023-11-25T00:54:18.301Z,59547.88
2023-11-25T00:59:19.559Z,59558.03
2023-11-25T01:04:20.755Z,59547.88
2023-11-25T01:09:26.442Z,59539.75
2023-11-25T01:14:28.378Z,59551.94
2023-11-25T01:19:29.673Z,59543.81
2023-11-25T01:24:31.089Z,59539.75
2023-11-25T01:29:32.301Z,59549.91
2023-11-25T01:34:33.521Z,59549.91
2023-11-25T01:39:35.264Z,59576.34
2023-11-25T01:44:36.438Z,59560.06
2023-11-25T01:49:37.662Z,59551.94
2023-11-25T01:54:38.993Z,59588.53
2023-11-25T01:59:40.299Z,59572.25
2023-11-25T02:04:41.538Z,59558.03
2023-11-25T02:09:42.755Z,59578.38
2023-11-25T02:14:43.931Z,59541.78
2023-11-25T02:19:45.205Z,59584.47
2023-11-25T02:24:46.447Z,59580.41
2023-11-25T02:29:47.663Z,59570.22
2023-11-25T02:34:50.013Z,59570.22
2023-11-25T02:39:51.332Z,59572.25
2023-11-25T02:44:54.526Z,59576.34
2023-11-25T02:49:57.876Z,59570.22
2023-11-25T02:54:59.259Z,59580.41
2023-11-25T03:00:00.631Z,59558.03
2023-11-25T03:05:01.843Z,59558.03
2023-11-25T03:10:04.225Z,59608.84
2023-11-25T03:15:05.403Z,59616.97
2023-11-25T03:20:08.056Z,59574.31
2023-11-25T03:25:09.250Z,59562.09
2023-11-25T03:30:12.505Z,59560.06
2023-11-25T03:35:15.152Z,59600.72
2023-11-25T03:40:17.163Z,59586.50
2023-11-25T03:45:18.514Z,59621.03
2023-11-25T03:50:19.742Z,59596.66
2023-11-25T03:55:20.993Z,59574.31
2023-11-25T04:00:23.562Z,59596.66
2023-11-25T04:05:24.985Z,59598.69
2023-11-25T04:10:28.138Z,59582.44
2023-11-25T04:15:29.409Z,59588.53
2023-11-25T04:20:32.903Z,59608.84
2023-11-25T04:25:35.164Z,59616.97
2023-11-25T04:30:36.548Z,59551.94
2023-11-25T04:35:40.903Z,59580.41
2023-11-25T04:40:42.322Z,59560.06
2023-11-25T04:45:43.586Z,59576.34
2023-11-25T04:50:46.347Z,59566.16
2023-11-25T04:55:47.637Z,59535.69
2023-11-25T05:00:48.869Z,59560.06
2023-11-25T05:05:50.067Z,59562.09
2023-11-25T05:10:51.262Z,59580.41
2023-11-25T05:15:52.540Z,59568.19
2023-11-25T05:20:53.736Z,59560.06
2023-11-25T05:25:55.472Z,59560.06
2023-11-25T05:30:56.742Z,59586.50
2023-11-25T05:35:57.919Z,59562.09
2023-11-25T05:40:59.097Z,59541.78
2023-11-25T05:46:00.467Z,59560.06
2023-11-25T05:51:01.663Z,59590.56
2023-11-25T05:56:02.846Z,59558.03
2023-11-25T06:01:04.016Z,59515.34
2023-11-25T06:06:08.418Z,59572.25
2023-11-25T06:11:09.602Z,59521.47
2023-11-25T06:16:10.770Z,59560.06
2023-11-25T06:21:11.926Z,59521.47
2023-11-25T06:26:13.235Z,59556.00
2023-11-25T06:31:14.476Z,59560.06
2023-11-25T06:36:16.421Z,59556.00
2023-11-25T06:41:18.512Z,59535.69
2023-11-25T06:46:19.734Z,59545.84
2023-11-25T06:51:20.946Z,59527.56
2023-11-25T06:56:23.205Z,59547.88
2023-11-25T07:01:24.487Z,59547.88
2023-11-25T07:06:25.744Z,59495.03
2023-11-25T07:11:27.013Z,59519.44
2023-11-25T07:16:28.387Z,59560.06
2023-11-25T07:21:29.624Z,59535.69
2023-11-25T07:26:30.860Z,59543.81
2023-11-25T07:31:33.615Z,59505.19
2023-11-25T07:36:34.868Z,59458.47
2023-11-25T07:41:36.071Z,59549.91
2023-11-25T07:46:37.293Z,59486.91
2023-11-25T07:51:38.489Z,59531.63
2023-11-25T07:56:39.656Z,59501.13
2023-11-25T08:01:40.909Z,59533.66
2023-11-25T08:06:42.159Z,59523.50
2023-11-25T08:11:43.331Z,59511.28
2023-11-25T08:16:44.704Z,59482.84
2023-11-25T08:21:45.920Z,59495.03
2023-11-25T08:26:47.264Z,59547.88
2023-11-25T08:31:48.642Z,59507.22
2023-11-25T08:36:56.536Z,59503.16
2023-11-25T08:42:00.057Z,59503.16
2023-11-25T08:47:01.259Z,59486.91
2023-11-25T08:52:02.543Z,59497.06
2023-11-25T08:57:03.956Z,59474.72
2023-11-25T09:02:06.287Z,59519.44
2023-11-25T09:07:08.781Z,59519.44
2023-11-25T09:12:10.212Z,59539.75
2023-11-25T09:17:14.390Z,59513.31
2023-11-25T09:22:16.145Z,59503.16
2023-11-25T09:27:17.335Z,59533.66
2023-11-25T09:32:19.350Z,59525.53
2023-11-25T09:37:20.971Z,59466.59
2023-11-25T09:42:22.155Z,59462.53
2023-11-25T09:47:24.189Z,59507.22
2023-11-25T09:52:25.380Z,59519.44
2023-11-25T09:57:33.261Z,59468.63
2023-11-25T10:02:34.658Z,59482.84
2023-11-25T10:07:35.951Z,59468.63
2023-11-25T10:12:37.137Z,59519.44
2023-11-25T10:17:39.219Z,59486.91
2023-11-25T10:22:40.463Z,59466.59
2023-11-25T10:27:41.666Z,59488.94
2023-11-25T10:32:42.955Z,59486.91
2023-11-25T10:37:45.445Z,59464.56
2023-11-25T10:42:47.137Z,59462.53
2023-11-25T10:47:48.384Z,59499.09
2023-11-25T10:52:49.623Z,59456.41
2023-11-25T10:57:50.814Z,59466.59
2023-11-25T11:02:54.057Z,59468.63
2023-11-25T11:07:55.786Z,59497.06
2023-11-25T11:12:57.008Z,59464.56
2023-11-25T11:17:58.287Z,59468.63
2023-11-25T11:22:59.553Z,59462.53
2023-11-25T11:28:02.370Z,59446.25
2023-11-25T11:33:03.579Z,59430.00
2023-11-25T11:38:05.269Z,59427.97
2023-11-25T11:43:08.160Z,59446.25
2023-11-25T11:48:10.121Z,59423.91
2023-11-25T11:53:14.278Z,59442.19
2023-11-25T11:58:16.542Z,59438.13
2023-11-25T12:03:17.786Z,59450.31
2023-11-25T12:08:18.969Z,59413.75
2023-11-25T12:13:20.144Z,59434.06
2023-11-25T12:18:21.728Z,59454.38
2023-11-25T12:23:26.482Z,59448.28
2023-11-25T12:28:31.657Z,59438.13
2023-11-25T12:33:32.873Z,59421.88
2023-11-25T12:38:35.241Z,59454.38
2023-11-25T12:43:37.193Z,59440.16
2023-11-25T12:48:38.458Z,59464.56
2023-11-25T12:53:39.649Z,59462.53
2023-11-25T12:58:40.845Z,59411.72
2023-11-25T13:03:42.311Z,59421.88
2023-11-25T13:08:44.482Z,59403.59
2023-11-25T13:13:45.805Z,59440.16
2023-11-25T13:18:47.080Z,59405.63
2023-11-25T13:23:48.343Z,59419.84
2023-11-25T13:28:49.575Z,59446.25
2023-11-25T13:33:50.811Z,59436.09
2023-11-25T13:38:51.997Z,59389.34
2023-11-25T13:43:53.274Z,59423.91
2023-11-25T13:48:55.083Z,59442.19
2023-11-25T13:53:58.128Z,59434.06
2023-11-25T13:58:59.426Z,59450.31
2023-11-25T14:04:02.534Z,59430.00
2023-11-25T14:09:04.643Z,59454.38
2023-11-25T14:14:06.664Z,59395.47
2023-11-25T14:19:08.145Z,59415.78
2023-11-25T14:24:09.424Z,59460.50
2023-11-25T14:29:10.667Z,59456.41
2023-11-25T14:34:11.833Z,59466.59
2023-11-25T14:39:19.225Z,59490.97
2023-11-25T14:44:20.963Z,59474.72
2023-11-25T14:49:22.210Z,59430.00
2023-11-25T14:54:24.243Z,59470.66
2023-11-25T14:59:26.904Z,59458.47
2023-11-25T15:04:28.291Z,59468.63
2023-11-25T15:09:29.533Z,59460.50
2023-11-25T15:14:31.585Z,59442.19
2023-11-25T15:19:33.402Z,59495.03
2023-11-25T15:24:35.479Z,59486.91
2023-11-25T15:29:36.988Z,59448.28
2023-11-25T15:34:38.317Z,59490.97
2023-11-25T15:39:39.521Z,59446.25
2023-11-25T15:44:40.744Z,59458.47
2023-11-25T15:49:41.975Z,59484.88
2023-11-25T15:54:43.210Z,59490.97
2023-11-25T15:59:44.874Z,59454.38
2023-11-25T16:04:46.143Z,59440.16
2023-11-25T16:09:47.409Z,59452.34
2023-11-25T16:14:49.269Z,59468.63
2023-11-25T16:19:50.482Z,59470.66
2023-11-25T16:24:52.331Z,59458.47
2023-11-25T16:29:56.239Z,59423.91
2023-11-25T16:34:58.274Z,59444.22
2023-11-25T16:39:59.478Z,59456.41
2023-11-25T16:45:00.759Z,59466.59
2023-11-25T16:50:02.270Z,59470.66
2023-11-25T16:55:03.796Z,59452.34
2023-11-25T17:00:07.211Z,59466.59
2023-11-25T17:05:09.263Z,59434.06
2023-11-25T17:10:10.608Z,59417.81
2023-11-25T17:15:11.843Z,59434.06
2023-11-25T17:20:13.279Z,59450.31
2023-11-25T17:25:14.499Z,59470.66
2023-11-25T17:30:15.717Z,59470.66
2023-11-25T17:35:16.945Z,59464.56
2023-11-25T17:40:18.477Z,59474.72
2023-11-25T17:45:19.766Z,59458.47
2023-11-25T17:50:21.071Z,59493.00
2023-11-25T17:55:22.261Z,59464.56
2023-11-25T18:00:23.911Z,59454.38
2023-11-25T18:05:25.221Z,59462.53
2023-11-25T18:10:28.710Z,59497.06
2023-11-25T18:15:29.975Z,59490.97
2023-11-25T18:20:31.155Z,59519.44
2023-11-25T18:25:32.377Z,59486.91
2023-11-25T18:30:33.633Z,59462.53
2023-11-25T18:35:37.653Z,59478.78
2023-11-25T18:40:40.096Z,59505.19
2023-11-25T18:45:41.296Z,59468.63
2023-11-25T18:50:42.470Z,59476.75
2023-11-25T18:55:43.659Z,59490.97
2023-11-25T19:00:44.938Z,59486.91
2023-11-25T19:05:47.777Z,59468.63
2023-11-25T19:10:49.674Z,59460.50
2023-11-25T19:15:51.054Z,59450.31
2023-11-25T19:20:52.226Z,59474.72
2023-11-25T19:25:53.598Z,59446.25
2023-11-25T19:30:54.831Z,59462.53
2023-11-25T19:35:56.081Z,59497.06
2023-11-25T19:40:57.707Z,59486.91
2023-11-25T19:45:58.898Z,59464.56
2023-11-25T19:51:00.095Z,59495.03
2023-11-25T19:56:01.320Z,59446.25
2023-11-25T20:01:02.579Z,59486.91
2023-11-25T20:06:03.770Z,59468.63
2023-11-25T20:11:05.570Z,59470.66
2023-11-25T20:16:06.958Z,59466.59
2023-11-25T20:21:08.408Z,59509.25
2023-11-25T20:26:09.665Z,59472.69
2023-11-25T20:31:11.057Z,59497.06
2023-11-25T20:36:15.089Z,59425.94
2023-11-25T20:41:16.401Z,59499.09
2023-11-25T20:46:18.187Z,59493.00
2023-11-25T20:51:22.952Z,59454.38
2023-11-25T20:56:24.144Z,59507.22
2023-11-25T21:01:25.330Z,59460.50
2023-11-25T21:06:26.507Z,59474.72
2023-11-25T21:11:27.678Z,59466.59
2023-11-25T21:16:28.899Z,59474.72
2023-11-25T21:21:30.141Z,59482.84
2023-11-25T21:26:31.316Z,59421.88
2023-11-25T21:31:32.487Z,59466.59
2023-11-25T21:36:34.703Z,59454.38
2023-11-25T21:41:35.897Z,59446.25
2023-11-25T21:46:37.338Z,59452.34
2023-11-25T21:51:38.648Z,59454.38
2023-11-25T21:56:39.821Z,59478.78
2023-11-25T22:01:41.478Z,59458.47
2023-11-25T22:06:42.759Z,59495.03
2023-11-25T22:11:47.302Z,59470.66
2023-11-25T22:16:49.278Z,59486.91
2023-11-25T22:21:50.492Z,59470.66
2023-11-25T22:27:00.646Z,59442.19
2023-11-25T22:32:01.974Z,59490.97
2023-11-25T22:37:05.195Z,59450.31
2023-11-25T22:42:06.450Z,59448.28
2023-11-25T22:47:07.733Z,59511.28
2023-11-25T22:52:08.936Z,59478.78
2023-11-25T22:57:10.168Z,59450.31
2023-11-25T23:02:15.113Z,59458.47
2023-11-25T23:07:17.849Z,59393.44
2023-11-25T23:12:19.551Z,59462.53
2023-11-25T23:17:20.883Z,59490.97
2023-11-25T23:22:22.071Z,59442.19
2023-11-25T23:27:23.246Z,59478.78
2023-11-25T23:32:24.538Z,59448.28
2023-11-25T23:37:26.244Z,59458.47
2023-11-25T23:42:27.492Z,59464.56
2023-11-25T23:47:28.727Z,59466.59
2023-11-25T23:52:29.925Z,59458.47
2023-11-25T23:57:31.124Z,59421.88
